East Blacksea — T2ZH3 — position and weather

sailwx.info

Track history (hours):
 
Tides and Currents Weather Stations Pressure Air Temp Water Temp Dewpoint Dewpoint Depression Visibility Wind Speed Wind Dir Waves Ship Positions

East Blacksea

Last reported at 2016-May-31 11:17 UTC. Time now 2016-May-31 17:59 UTC.
Position N 37°52' E 024°33'.

Length 69 m; draft 4.4 m.

Type: Cargo ship. MMSI: 572341210.

Date/timePositionNaut miles runAvg speedWind from/ knotsBaromVisibWave heightAir tempDewpointWater temp
2016-May-31 11:17N 37°52' E 024°33'27 7.1
2016-May-31 07:32N 37°37' E 024°05'7 7.3
2016-May-31 06:33N 37°38' E 023°56'14 6.8
2016-May-31 04:33N 37°43' E 023°40'7 7.3
2016-May-31 03:33N 37°49' E 023°35'7 7.3
2016-May-31 02:33N 37°51' E 023°26'7 7.3
2016-May-31 01:33N 37°52' E 023°17'7 7.4
2016-May-31 00:33N 37°53' E 023°08'88 2.4
2016-May-29 12:17N 38°14' E 021°19'7 8.2
2016-May-29 11:27N 38°10' E 021°11'8 8.6
2016-May-29 10:33N 38°07' E 021°03'8 8.5
2016-May-29 09:33N 38°03' E 020°53'9 8.1
2016-May-29 08:28N 38°00' E 020°43'32 8.3
2016-May-29 04:33N 38°00' E 020°02'8 8.3
2016-May-29 03:33N 37°60' E 019°51'183 8.3
2016-May-28 05:26N 37°53' E 015°59'8 8.0
2016-May-28 04:24N 37°53' E 015°49'7 7.9
2016-May-28 03:33N 37°56' E 015°41'8 8.0
2016-May-28 02:33N 38°02' E 015°34'8 8.0
2016-May-28 01:33N 38°10' E 015°35'8 8.4
2016-May-28 00:33N 38°17' E 015°40'8 8.0
2016-May-27 23:33N 38°20' E 015°30'8 8.4
2016-May-27 22:33N 38°20' E 015°19'8 8.3
2016-May-27 21:33N 38°19' E 015°09'9 8.5
2016-May-27 20:33N 38°19' E 014°58'9 8.4
2016-May-27 19:30N 38°19' E 014°47'38 7.7
2016-May-27 14:32N 38°19' E 013°58'8 7.8
2016-May-27 13:33N 38°19' E 013°48'8 7.8
2016-May-27 12:33N 38°18' E 013°38'8 7.8
2016-May-27 11:33N 38°18' E 013°28'7 7.4
2016-May-27 10:33N 38°18' E 013°19'7 6.9
2016-May-27 09:33N 38°17' E 013°10'7 6.9
2016-May-27 08:33N 38°17' E 013°01'7 7.2
2016-May-27 07:33N 38°16' E 012°52'9 7.3
2016-May-27 06:17N 38°14' E 012°41'6 7.3
2016-May-27 05:26N 38°13' E 012°33'6 7.3
2016-May-27 04:33N 38°12' E 012°25'39 7.6
2016-May-26 23:26N 38°02' E 011°37'7 8.1
2016-May-26 22:33N 37°59' E 011°29'8 8.3
2016-May-26 21:32N 37°53' E 011°21'300 7.5
2016-May-25 05:23N 37°10' E 005°07'61 6.9
2016-May-24 20:32N 37°04' E 003°51'12 5.2
2016-May-24 18:16N 37°02' E 003°37'4 5.8
2016-May-24 17:33N 37°01' E 003°32'40 6.5
2016-May-24 11:24N 36°55' E 002°43'30 7.0
2016-May-24 07:07N 36°49' E 002°06'4 7.1
2016-May-24 06:31N 36°50' E 002°00'7 7.0
2016-May-24 05:34N 36°50' E 001°52'7 7.2
2016-May-24 04:33N 36°49' E 001°43'7 7.3
2016-May-24 03:33N 36°47' E 001°34'7 7.2
2016-May-24 02:33N 36°46' E 001°25'7 7.1
2016-May-24 01:33N 36°44' E 001°17'318 7.2
2016-May-22 05:06N 35°58' W 005°15'510.0
2016-May-22 04:34N 35°58' W 005°21'  
Track history (hours):
 
Tides and Currents Weather Stations Pressure Air Temp Water Temp Dewpoint Dewpoint Depression Visibility Wind Speed Wind Dir Waves Ship Positions

East Blacksea

Last reported at 2016-May-31 11:17 UTC. Time now 2016-May-31 17:59 UTC.
Position N 37°52' E 024°33'.

Length 69 m; draft 4.4 m.

Type: Cargo ship. MMSI: 572341210.

Date/timePositionNaut miles runAvg speedWind from/ knotsBaromVisibWave heightAir tempDewpointWater temp
2016-May-31 11:17N 37°52' E 024°33'27 7.1
2016-May-31 07:32N 37°37' E 024°05'7 7.3
2016-May-31 06:33N 37°38' E 023°56'14 6.8
2016-May-31 04:33N 37°43' E 023°40'7 7.3
2016-May-31 03:33N 37°49' E 023°35'7 7.3
2016-May-31 02:33N 37°51' E 023°26'7 7.3
2016-May-31 01:33N 37°52' E 023°17'7 7.4
2016-May-31 00:33N 37°53' E 023°08'88 2.4
2016-May-29 12:17N 38°14' E 021°19'7 8.2
2016-May-29 11:27N 38°10' E 021°11'8 8.6
2016-May-29 10:33N 38°07' E 021°03'8 8.5
2016-May-29 09:33N 38°03' E 020°53'9 8.1
2016-May-29 08:28N 38°00' E 020°43'32 8.3
2016-May-29 04:33N 38°00' E 020°02'8 8.3
2016-May-29 03:33N 37°60' E 019°51'183 8.3
2016-May-28 05:26N 37°53' E 015°59'8 8.0
2016-May-28 04:24N 37°53' E 015°49'7 7.9
2016-May-28 03:33N 37°56' E 015°41'8 8.0
2016-May-28 02:33N 38°02' E 015°34'8 8.0
2016-May-28 01:33N 38°10' E 015°35'8 8.4
2016-May-28 00:33N 38°17' E 015°40'8 8.0
2016-May-27 23:33N 38°20' E 015°30'8 8.4
2016-May-27 22:33N 38°20' E 015°19'8 8.3
2016-May-27 21:33N 38°19' E 015°09'9 8.5
2016-May-27 20:33N 38°19' E 014°58'9 8.4
2016-May-27 19:30N 38°19' E 014°47'38 7.7
2016-May-27 14:32N 38°19' E 013°58'8 7.8
2016-May-27 13:33N 38°19' E 013°48'8 7.8
2016-May-27 12:33N 38°18' E 013°38'8 7.8
2016-May-27 11:33N 38°18' E 013°28'7 7.4
2016-May-27 10:33N 38°18' E 013°19'7 6.9
2016-May-27 09:33N 38°17' E 013°10'7 6.9
2016-May-27 08:33N 38°17' E 013°01'7 7.2
2016-May-27 07:33N 38°16' E 012°52'9 7.3
2016-May-27 06:17N 38°14' E 012°41'6 7.3
2016-May-27 05:26N 38°13' E 012°33'6 7.3
2016-May-27 04:33N 38°12' E 012°25'39 7.6
2016-May-26 23:26N 38°02' E 011°37'7 8.1
2016-May-26 22:33N 37°59' E 011°29'8 8.3
2016-May-26 21:32N 37°53' E 011°21'300 7.5
2016-May-25 05:23N 37°10' E 005°07'61 6.9
2016-May-24 20:32N 37°04' E 003°51'12 5.2
2016-May-24 18:16N 37°02' E 003°37'4 5.8
2016-May-24 17:33N 37°01' E 003°32'40 6.5
2016-May-24 11:24N 36°55' E 002°43'30 7.0
2016-May-24 07:07N 36°49' E 002°06'4 7.1
2016-May-24 06:31N 36°50' E 002°00'7 7.0
2016-May-24 05:34N 36°50' E 001°52'7 7.2
2016-May-24 04:33N 36°49' E 001°43'7 7.3
2016-May-24 03:33N 36°47' E 001°34'7 7.2
2016-May-24 02:33N 36°46' E 001°25'7 7.1
2016-May-24 01:33N 36°44' E 001°17'318 7.2
2016-May-22 05:06N 35°58' W 005°15'510.0
2016-May-22 04:34N 35°58' W 005°21'  

Dump ship's entire track history